createdAt,value
2022-08-12T00:05:27.709Z,22.38
2022-08-12T00:35:49.274Z,21.97
2022-08-12T01:06:13.956Z,21.69
2022-08-12T01:36:20.651Z,21.34
2022-08-12T02:06:45.607Z,21.30
2022-08-12T02:36:50.386Z,21.10
2022-08-12T03:07:03.768Z,20.77
2022-08-12T03:37:11.036Z,20.37
2022-08-12T04:07:16.277Z,19.88
2022-08-12T04:37:20.713Z,19.73
2022-08-12T05:07:25.123Z,19.89
2022-08-12T05:37:29.271Z,20.31
2022-08-12T06:08:00.102Z,20.70
2022-08-12T06:37:58.635Z,21.26
2022-08-12T07:08:10.289Z,22.03
2022-08-12T07:38:29.296Z,22.84
2022-08-12T08:08:34.266Z,24.21
2022-08-12T08:38:55.006Z,27.41
2022-08-12T09:09:13.071Z,31.64
2022-08-12T09:40:03.474Z,33.67
2022-08-12T10:09:58.620Z,33.14
2022-08-12T10:40:09.342Z,35.01
2022-08-12T11:10:17.002Z,35.15
2022-08-12T11:40:23.270Z,36.53
2022-08-12T12:10:27.443Z,36.87
2022-08-12T12:40:33.049Z,36.80
2022-08-12T13:10:38.632Z,35.85
2022-08-12T13:40:58.305Z,34.69
2022-08-12T14:11:02.794Z,35.22
2022-08-12T14:41:11.218Z,35.09
2022-08-12T15:11:17.302Z,34.23
2022-08-12T15:41:25.930Z,33.64
2022-08-12T16:11:43.480Z,33.17
2022-08-12T16:41:48.387Z,32.17
2022-08-12T17:11:52.729Z,30.18
2022-08-12T17:41:57.680Z,28.72
2022-08-12T18:12:24.267Z,27.93
2022-08-12T18:42:30.540Z,27.37
2022-08-12T19:12:56.931Z,26.48
2022-08-12T19:43:18.806Z,25.72
2022-08-12T20:13:37.496Z,25.10
2022-08-12T20:43:42.242Z,24.34
2022-08-12T21:13:48.441Z,23.95
2022-08-12T21:43:52.603Z,23.47
2022-08-12T22:14:08.786Z,23.06
2022-08-12T22:44:30.675Z,22.66
2022-08-12T23:14:35.267Z,22.29
2022-08-12T23:44:40.005Z,21.85
